sensor_id;sensor_type;location;lat;lon;timestamp;pressure;altitude;pressure_sealevel;temperature;humidity
66627;BME280;53498;50.422;14.912;2023-05-03T00:00:21;99877.00;;;9.89;80.99
66627;BME280;53498;50.422;14.912;2023-05-03T00:03:07;99880.84;;;9.61;80.62
66627;BME280;53498;50.422;14.912;2023-05-03T00:05:33;99879.19;;;9.64;80.00
66627;BME280;53498;50.422;14.912;2023-05-03T00:07:58;99878.91;;;9.47;78.34
66627;BME280;53498;50.422;14.912;2023-05-03T00:10:25;99871.13;;;9.49;79.39
66627;BME280;53498;50.422;14.912;2023-05-03T00:12:50;99882.16;;;9.34;77.95
66627;BME280;53498;50.422;14.912;2023-05-03T00:15:16;99882.91;;;9.30;77.96
66627;BME280;53498;50.422;14.912;2023-05-03T00:17:42;99885.41;;;9.24;76.84
66627;BME280;53498;50.422;14.912;2023-05-03T00:20:08;99888.50;;;9.04;77.22
66627;BME280;53498;50.422;14.912;2023-05-03T00:22:34;99881.50;;;9.00;77.50
66627;BME280;53498;50.422;14.912;2023-05-03T00:24:59;99877.31;;;9.09;77.26
66627;BME280;53498;50.422;14.912;2023-05-03T00:27:25;99879.84;;;9.04;77.61
66627;BME280;53498;50.422;14.912;2023-05-03T00:29:51;99878.22;;;9.11;77.81
66627;BME280;53498;50.422;14.912;2023-05-03T00:32:19;99879.91;;;9.09;77.62
66627;BME280;53498;50.422;14.912;2023-05-03T00:34:54;99876.34;;;9.02;76.91
66627;BME280;53498;50.422;14.912;2023-05-03T00:37:20;99872.13;;;9.09;77.10
66627;BME280;53498;50.422;14.912;2023-05-03T00:39:46;99873.78;;;9.03;76.83
66627;BME280;53498;50.422;14.912;2023-05-03T00:42:11;99875.34;;;8.95;77.04
66627;BME280;53498;50.422;14.912;2023-05-03T00:44:37;99872.97;;;9.08;77.14
66627;BME280;53498;50.422;14.912;2023-05-03T00:47:03;99881.00;;;9.18;76.50
66627;BME280;53498;50.422;14.912;2023-05-03T00:49:29;99877.38;;;9.10;75.65
66627;BME280;53498;50.422;14.912;2023-05-03T00:51:55;99878.75;;;8.93;75.05
66627;BME280;53498;50.422;14.912;2023-05-03T00:54:26;99875.09;;;8.82;74.10
66627;BME280;53498;50.422;14.912;2023-05-03T00:56:52;99884.47;;;8.76;74.14
66627;BME280;53498;50.422;14.912;2023-05-03T00:59:18;99879.28;;;8.75;74.01
66627;BME280;53498;50.422;14.912;2023-05-03T01:01:49;99889.72;;;8.78;72.57
66627;BME280;53498;50.422;14.912;2023-05-03T01:04:16;99881.94;;;8.78;73.27
66627;BME280;53498;50.422;14.912;2023-05-03T01:07:06;99883.00;;;8.89;72.57
66627;BME280;53498;50.422;14.912;2023-05-03T01:09:43;99886.34;;;8.82;72.36
66627;BME280;53498;50.422;14.912;2023-05-03T01:15:01;99885.94;;;8.64;71.39
66627;BME280;53498;50.422;14.912;2023-05-03T01:17:34;99881.63;;;8.63;70.75
66627;BME280;53498;50.422;14.912;2023-05-03T01:20:06;99888.59;;;8.65;69.61
66627;BME280;53498;50.422;14.912;2023-05-03T01:25:22;99879.97;;;8.66;68.40
66627;BME280;53498;50.422;14.912;2023-05-03T01:27:48;99874.72;;;8.63;69.00
66627;BME280;53498;50.422;14.912;2023-05-03T01:30:14;99871.25;;;8.64;67.80
66627;BME280;53498;50.422;14.912;2023-05-03T01:38:16;99884.09;;;8.58;67.12
66627;BME280;53498;50.422;14.912;2023-05-03T01:40:46;99887.56;;;8.58;66.78
66627;BME280;53498;50.422;14.912;2023-05-03T01:43:26;99878.75;;;8.50;66.58
66627;BME280;53498;50.422;14.912;2023-05-03T01:45:56;99888.25;;;8.50;67.45
66627;BME280;53498;50.422;14.912;2023-05-03T01:48:22;99883.88;;;8.47;67.60
66627;BME280;53498;50.422;14.912;2023-05-03T01:50:48;99885.31;;;8.36;66.65
66627;BME280;53498;50.422;14.912;2023-05-03T01:53:14;99881.72;;;8.28;66.94
66627;BME280;53498;50.422;14.912;2023-05-03T01:55:39;99886.28;;;8.38;68.18
66627;BME280;53498;50.422;14.912;2023-05-03T01:58:05;99887.63;;;8.24;67.50
66627;BME280;53498;50.422;14.912;2023-05-03T02:00:31;99885.88;;;8.21;67.73
66627;BME280;53498;50.422;14.912;2023-05-03T02:02:57;99884.19;;;8.23;67.80
66627;BME280;53498;50.422;14.912;2023-05-03T02:05:22;99884.09;;;8.19;66.98
66627;BME280;53498;50.422;14.912;2023-05-03T02:07:48;99878.09;;;8.21;67.50
66627;BME280;53498;50.422;14.912;2023-05-03T02:10:14;99881.28;;;8.09;69.21
66627;BME280;53498;50.422;14.912;2023-05-03T02:12:41;99886.53;;;8.13;70.00
66627;BME280;53498;50.422;14.912;2023-05-03T02:15:07;99887.69;;;7.89;69.83
66627;BME280;53498;50.422;14.912;2023-05-03T02:17:33;99888.78;;;7.97;69.68
66627;BME280;53498;50.422;14.912;2023-05-03T02:19:59;99882.88;;;8.03;71.13
66627;BME280;53498;50.422;14.912;2023-05-03T02:22:25;99889.56;;;7.93;70.71
66627;BME280;53498;50.422;14.912;2023-05-03T02:24:52;99888.88;;;8.02;71.46
66627;BME280;53498;50.422;14.912;2023-05-03T02:27:24;99884.59;;;8.02;71.61
66627;BME280;53498;50.422;14.912;2023-05-03T02:29:50;99890.72;;;8.06;70.31
66627;BME280;53498;50.422;14.912;2023-05-03T02:32:16;99884.38;;;7.93;70.00
66627;BME280;53498;50.422;14.912;2023-05-03T02:34:43;99883.28;;;7.83;69.19
66627;BME280;53498;50.422;14.912;2023-05-03T02:37:09;99879.63;;;7.77;69.87
66627;BME280;53498;50.422;14.912;2023-05-03T02:39:35;99881.25;;;7.72;70.63
66627;BME280;53498;50.422;14.912;2023-05-03T02:42:00;99882.00;;;7.68;70.43
66627;BME280;53498;50.422;14.912;2023-05-03T02:44:27;99882.97;;;7.71;70.50
66627;BME280;53498;50.422;14.912;2023-05-03T02:46:52;99886.31;;;7.67;70.16
66627;BME280;53498;50.422;14.912;2023-05-03T02:49:19;99885.03;;;7.50;70.90
66627;BME280;53498;50.422;14.912;2023-05-03T02:51:49;99889.19;;;7.45;72.28
66627;BME280;53498;50.422;14.912;2023-05-03T02:54:14;99891.25;;;7.58;72.24
66627;BME280;53498;50.422;14.912;2023-05-03T02:56:40;99895.56;;;7.57;71.35
66627;BME280;53498;50.422;14.912;2023-05-03T02:59:05;99887.69;;;7.53;71.38
66627;BME280;53498;50.422;14.912;2023-05-03T03:01:34;99897.19;;;7.54;72.63
66627;BME280;53498;50.422;14.912;2023-05-03T03:04:00;99901.44;;;7.50;73.11
66627;BME280;53498;50.422;14.912;2023-05-03T03:06:25;99903.00;;;7.44;72.43
66627;BME280;53498;50.422;14.912;2023-05-03T03:08:51;99906.38;;;7.42;73.88
66627;BME280;53498;50.422;14.912;2023-05-03T03:11:17;99912.09;;;7.29;72.63
66627;BME280;53498;50.422;14.912;2023-05-03T03:13:43;99904.78;;;7.14;73.28
66627;BME280;53498;50.422;14.912;2023-05-03T03:16:09;99904.06;;;7.18;73.71
66627;BME280;53498;50.422;14.912;2023-05-03T03:18:35;99904.13;;;7.22;73.73
66627;BME280;53498;50.422;14.912;2023-05-03T03:21:04;99907.16;;;7.05;74.23
66627;BME280;53498;50.422;14.912;2023-05-03T03:23:30;99905.03;;;6.92;74.69
66627;BME280;53498;50.422;14.912;2023-05-03T03:25:55;99906.84;;;6.94;74.73
66627;BME280;53498;50.422;14.912;2023-05-03T03:28:21;99899.66;;;6.84;75.15
66627;BME280;53498;50.422;14.912;2023-05-03T03:30:46;99908.16;;;6.80;75.82
66627;BME280;53498;50.422;14.912;2023-05-03T03:33:12;99910.03;;;6.86;76.50
66627;BME280;53498;50.422;14.912;2023-05-03T03:35:38;99914.59;;;6.94;76.77
66627;BME280;53498;50.422;14.912;2023-05-03T03:38:04;99917.34;;;7.01;76.75
66627;BME280;53498;50.422;14.912;2023-05-03T03:40:30;99918.06;;;6.95;76.90
66627;BME280;53498;50.422;14.912;2023-05-03T03:42:56;99912.06;;;6.96;76.81
66627;BME280;53498;50.422;14.912;2023-05-03T03:45:21;99910.38;;;6.98;76.21
66627;BME280;53498;50.422;14.912;2023-05-03T03:47:47;99912.09;;;6.98;76.36
66627;BME280;53498;50.422;14.912;2023-05-03T03:50:19;99921.75;;;7.05;75.64
66627;BME280;53498;50.422;14.912;2023-05-03T03:52:44;99922.59;;;7.02;75.78
66627;BME280;53498;50.422;14.912;2023-05-03T03:55:10;99935.09;;;6.87;75.17
66627;BME280;53498;50.422;14.912;2023-05-03T03:57:36;99933.41;;;6.89;76.98
66627;BME280;53498;50.422;14.912;2023-05-03T04:00:01;99926.47;;;6.88;76.25
66627;BME280;53498;50.422;14.912;2023-05-03T04:02:37;99934.41;;;6.94;76.87
66627;BME280;53498;50.422;14.912;2023-05-03T04:05:25;99936.22;;;6.97;76.84
66627;BME280;53498;50.422;14.912;2023-05-03T04:07:51;99941.69;;;7.07;77.61
66627;BME280;53498;50.422;14.912;2023-05-03T04:10:17;99944.78;;;7.26;76.77
66627;BME280;53498;50.422;14.912;2023-05-03T04:12:42;99948.38;;;7.31;73.03
66627;BME280;53498;50.422;14.912;2023-05-03T04:15:09;99958.72;;;7.31;72.81
66627;BME280;53498;50.422;14.912;2023-05-03T04:17:35;99953.94;;;7.14;74.69
66627;BME280;53498;50.422;14.912;2023-05-03T04:20:02;99958.03;;;7.06;74.72
66627;BME280;53498;50.422;14.912;2023-05-03T04:22:36;99957.69;;;7.24;73.13
66627;BME280;53498;50.422;14.912;2023-05-03T04:25:04;99958.50;;;7.55;72.40
66627;BME280;53498;50.422;14.912;2023-05-03T04:27:29;99972.53;;;7.96;69.80
66627;BME280;53498;50.422;14.912;2023-05-03T04:29:57;99973.88;;;7.82;69.72
66627;BME280;53498;50.422;14.912;2023-05-03T04:32:24;99971.03;;;7.39;72.12
66627;BME280;53498;50.422;14.912;2023-05-03T04:34:50;99969.84;;;7.58;71.27
66627;BME280;53498;50.422;14.912;2023-05-03T04:37:21;99965.41;;;7.87;69.80
66627;BME280;53498;50.422;14.912;2023-05-03T04:39:46;99973.41;;;7.97;69.80
66627;BME280;53498;50.422;14.912;2023-05-03T04:42:12;99973.47;;;8.36;67.97
66627;BME280;53498;50.422;14.912;2023-05-03T04:44:40;99983.53;;;8.58;67.24
66627;BME280;53498;50.422;14.912;2023-05-03T04:47:06;99977.25;;;9.29;64.24
66627;BME280;53498;50.422;14.912;2023-05-03T04:49:33;99979.25;;;9.91;60.79
66627;BME280;53498;50.422;14.912;2023-05-03T04:51:59;99983.88;;;10.09;60.05
66627;BME280;53498;50.422;14.912;2023-05-03T04:54:25;99976.59;;;10.39;58.86
66627;BME280;53498;50.422;14.912;2023-05-03T04:56:52;99983.34;;;10.27;59.60
66627;BME280;53498;50.422;14.912;2023-05-03T04:59:18;99984.91;;;10.18;60.88
66627;BME280;53498;50.422;14.912;2023-05-03T05:01:43;99979.63;;;9.64;63.65
66627;BME280;53498;50.422;14.912;2023-05-03T05:04:09;99984.19;;;9.76;63.78
66627;BME280;53498;50.422;14.912;2023-05-03T05:06:34;99988.22;;;9.60;61.03
66627;BME280;53498;50.422;14.912;2023-05-03T05:09:00;99986.31;;;9.49;62.16
66627;BME280;53498;50.422;14.912;2023-05-03T05:11:26;99987.00;;;9.41;64.34
66627;BME280;53498;50.422;14.912;2023-05-03T05:13:51;99994.19;;;9.56;64.97
66627;BME280;53498;50.422;14.912;2023-05-03T05:16:17;99999.38;;;9.56;64.23
66627;BME280;53498;50.422;14.912;2023-05-03T05:18:43;99998.78;;;9.69;63.37
66627;BME280;53498;50.422;14.912;2023-05-03T05:21:09;99998.56;;;9.58;63.31
66627;BME280;53498;50.422;14.912;2023-05-03T05:23:34;100000.63;;;9.75;63.42
66627;BME280;53498;50.422;14.912;2023-05-03T05:26:00;100002.03;;;9.57;62.87
66627;BME280;53498;50.422;14.912;2023-05-03T05:28:27;99996.91;;;9.62;62.13
66627;BME280;53498;50.422;14.912;2023-05-03T05:30:53;99999.25;;;9.48;61.22
66627;BME280;53498;50.422;14.912;2023-05-03T05:33:18;100002.78;;;9.52;61.45
66627;BME280;53498;50.422;14.912;2023-05-03T05:35:46;100005.91;;;9.79;58.22
66627;BME280;53498;50.422;14.912;2023-05-03T05:38:11;100005.91;;;9.81;56.66
66627;BME280;53498;50.422;14.912;2023-05-03T05:40:37;100000.41;;;9.64;57.07
66627;BME280;53498;50.422;14.912;2023-05-03T05:43:03;100011.72;;;9.67;55.95
66627;BME280;53498;50.422;14.912;2023-05-03T05:45:29;100010.97;;;9.73;56.74
66627;BME280;53498;50.422;14.912;2023-05-03T05:47:55;100015.59;;;9.89;54.85
66627;BME280;53498;50.422;14.912;2023-05-03T05:50:21;100018.34;;;9.99;55.06
66627;BME280;53498;50.422;14.912;2023-05-03T05:52:50;100028.59;;;10.38;53.78
66627;BME280;53498;50.422;14.912;2023-05-03T05:55:15;100026.22;;;10.52;53.55
66627;BME280;53498;50.422;14.912;2023-05-03T05:57:41;100029.56;;;10.45;53.08
66627;BME280;53498;50.422;14.912;2023-05-03T06:00:10;100026.47;;;10.69;53.31
66627;BME280;53498;50.422;14.912;2023-05-03T06:02:42;100022.16;;;10.71;52.63
66627;BME280;53498;50.422;14.912;2023-05-03T06:05:09;100029.44;;;10.96;52.69
66627;BME280;53498;50.422;14.912;2023-05-03T06:07:35;100034.53;;;11.54;52.04
66627;BME280;53498;50.422;14.912;2023-05-03T06:10:01;100043.63;;;11.85;49.03
66627;BME280;53498;50.422;14.912;2023-05-03T06:12:28;100031.69;;;12.10;47.47
66627;BME280;53498;50.422;14.912;2023-05-03T06:14:54;100039.84;;;11.60;48.17
66627;BME280;53498;50.422;14.912;2023-05-03T06:17:20;100033.78;;;11.63;49.12
66627;BME280;53498;50.422;14.912;2023-05-03T06:19:48;100036.09;;;11.40;49.73
66627;BME280;53498;50.422;14.912;2023-05-03T06:22:14;100038.25;;;11.06;48.17
66627;BME280;53498;50.422;14.912;2023-05-03T06:24:40;100040.63;;;11.54;48.94
66627;BME280;53498;50.422;14.912;2023-05-03T06:27:05;100044.59;;;11.23;47.47
66627;BME280;53498;50.422;14.912;2023-05-03T06:29:31;100041.06;;;11.21;48.27
66627;BME280;53498;50.422;14.912;2023-05-03T06:31:56;100037.13;;;11.51;46.55
66627;BME280;53498;50.422;14.912;2023-05-03T06:34:22;100050.53;;;11.13;47.66
66627;BME280;53498;50.422;14.912;2023-05-03T06:36:48;100049.38;;;11.60;47.43
66627;BME280;53498;50.422;14.912;2023-05-03T06:39:14;100051.78;;;11.43;46.74
66627;BME280;53498;50.422;14.912;2023-05-03T06:41:40;100053.94;;;11.80;46.64
66627;BME280;53498;50.422;14.912;2023-05-03T06:44:05;100058.56;;;12.06;45.25
66627;BME280;53498;50.422;14.912;2023-05-03T06:46:32;100058.41;;;11.88;45.80
66627;BME280;53498;50.422;14.912;2023-05-03T06:48:58;100061.97;;;11.96;45.13
66627;BME280;53498;50.422;14.912;2023-05-03T06:51:24;100064.63;;;12.00;46.08
66627;BME280;53498;50.422;14.912;2023-05-03T06:53:55;100059.00;;;11.68;44.88
66627;BME280;53498;50.422;14.912;2023-05-03T06:56:21;100056.38;;;11.65;45.98
66627;BME280;53498;50.422;14.912;2023-05-03T06:58:50;100061.19;;;12.06;45.86
66627;BME280;53498;50.422;14.912;2023-05-03T07:01:15;100060.00;;;11.76;46.99
66627;BME280;53498;50.422;14.912;2023-05-03T07:03:43;100061.31;;;12.18;46.07
66627;BME280;53498;50.422;14.912;2023-05-03T07:06:09;100053.22;;;11.92;46.38
66627;BME280;53498;50.422;14.912;2023-05-03T07:08:34;100054.94;;;11.90;45.13
66627;BME280;53498;50.422;14.912;2023-05-03T07:11:00;100057.59;;;11.93;46.38
66627;BME280;53498;50.422;14.912;2023-05-03T07:13:26;100061.78;;;11.82;46.15
66627;BME280;53498;50.422;14.912;2023-05-03T07:15:51;100059.50;;;12.11;45.71
66627;BME280;53498;50.422;14.912;2023-05-03T07:18:17;100054.81;;;11.81;46.11
66627;BME280;53498;50.422;14.912;2023-05-03T07:20:46;100064.69;;;12.08;45.32
66627;BME280;53498;50.422;14.912;2023-05-03T07:23:11;100048.41;;;12.32;44.81
66627;BME280;53498;50.422;14.912;2023-05-03T07:25:37;100057.13;;;12.36;45.20
66627;BME280;53498;50.422;14.912;2023-05-03T07:28:04;100057.72;;;12.06;44.03
66627;BME280;53498;50.422;14.912;2023-05-03T07:30:29;100057.94;;;12.29;44.19
66627;BME280;53498;50.422;14.912;2023-05-03T07:32:55;100060.41;;;12.13;44.31
66627;BME280;53498;50.422;14.912;2023-05-03T07:35:21;100059.75;;;12.36;44.19
66627;BME280;53498;50.422;14.912;2023-05-03T07:37:47;100057.59;;;11.92;43.87
66627;BME280;53498;50.422;14.912;2023-05-03T07:40:13;100054.91;;;11.86;43.75
66627;BME280;53498;50.422;14.912;2023-05-03T07:42:39;100052.31;;;11.86;44.33
66627;BME280;53498;50.422;14.912;2023-05-03T07:45:05;100055.94;;;12.01;42.96
66627;BME280;53498;50.422;14.912;2023-05-03T07:47:31;100051.75;;;12.17;43.84
66627;BME280;53498;50.422;14.912;2023-05-03T07:49:58;100046.72;;;12.40;43.77
66627;BME280;53498;50.422;14.912;2023-05-03T07:52:24;100045.91;;;12.49;42.45
66627;BME280;53498;50.422;14.912;2023-05-03T07:54:49;100051.72;;;12.13;43.50
66627;BME280;53498;50.422;14.912;2023-05-03T07:57:17;100042.28;;;12.30;42.84
66627;BME280;53498;50.422;14.912;2023-05-03T07:59:43;100050.38;;;12.62;43.44
66627;BME280;53498;50.422;14.912;2023-05-03T08:02:09;100051.84;;;12.30;42.88
66627;BME280;53498;50.422;14.912;2023-05-03T08:04:34;100037.31;;;12.61;41.88
66627;BME280;53498;50.422;14.912;2023-05-03T08:07:01;100044.44;;;12.86;41.27
66627;BME280;53498;50.422;14.912;2023-05-03T08:09:27;100044.09;;;12.36;42.75
66627;BME280;53498;50.422;14.912;2023-05-03T08:11:54;100041.50;;;12.40;41.35
66627;BME280;53498;50.422;14.912;2023-05-03T08:14:20;100032.81;;;12.40;41.52
66627;BME280;53498;50.422;14.912;2023-05-03T08:16:54;100037.94;;;12.29;42.67
66627;BME280;53498;50.422;14.912;2023-05-03T08:19:20;100032.34;;;11.89;42.16
66627;BME280;53498;50.422;14.912;2023-05-03T08:21:46;100032.59;;;12.14;41.69
66627;BME280;53498;50.422;14.912;2023-05-03T08:24:12;100038.75;;;12.23;43.27
66627;BME280;53498;50.422;14.912;2023-05-03T08:26:39;100040.31;;;12.06;42.23
66627;BME280;53498;50.422;14.912;2023-05-03T08:29:05;100024.72;;;12.12;43.34
66627;BME280;53498;50.422;14.912;2023-05-03T08:31:31;100029.41;;;12.53;43.21
66627;BME280;53498;50.422;14.912;2023-05-03T08:33:57;100024.28;;;12.61;41.75
66627;BME280;53498;50.422;14.912;2023-05-03T08:36:22;100026.72;;;12.41;42.50
66627;BME280;53498;50.422;14.912;2023-05-03T08:38:48;100031.34;;;12.76;42.24
66627;BME280;53498;50.422;14.912;2023-05-03T08:41:23;100029.56;;;12.70;40.52
66627;BME280;53498;50.422;14.912;2023-05-03T08:43:54;100025.19;;;12.67;41.28
66627;BME280;53498;50.422;14.912;2023-05-03T08:46:20;100021.78;;;12.79;41.10
66627;BME280;53498;50.422;14.912;2023-05-03T08:48:47;100025.47;;;13.16;40.99
66627;BME280;53498;50.422;14.912;2023-05-03T08:51:15;100037.53;;;12.93;38.79
66627;BME280;53498;50.422;14.912;2023-05-03T08:53:41;100028.78;;;12.82;40.25
66627;BME280;53498;50.422;14.912;2023-05-03T08:56:11;100036.47;;;12.65;41.26
66627;BME280;53498;50.422;14.912;2023-05-03T08:58:40;100022.72;;;12.89;42.05
66627;BME280;53498;50.422;14.912;2023-05-03T09:01:08;100034.78;;;12.70;42.06
66627;BME280;53498;50.422;14.912;2023-05-03T09:03:35;100012.25;;;12.90;41.75
66627;BME280;53498;50.422;14.912;2023-05-03T09:06:01;100010.44;;;12.77;41.28
66627;BME280;53498;50.422;14.912;2023-05-03T09:08:30;100015.97;;;13.29;42.09
66627;BME280;53498;50.422;14.912;2023-05-03T09:10:56;100027.88;;;12.81;41.29
66627;BME280;53498;50.422;14.912;2023-05-03T09:13:29;100025.25;;;12.81;41.01
66627;BME280;53498;50.422;14.912;2023-05-03T09:15:56;100028.88;;;13.02;41.21
66627;BME280;53498;50.422;14.912;2023-05-03T09:18:23;100021.13;;;13.20;41.02
66627;BME280;53498;50.422;14.912;2023-05-03T09:20:50;100024.41;;;12.79;41.04
66627;BME280;53498;50.422;14.912;2023-05-03T09:23:18;100023.63;;;13.00;40.81
66627;BME280;53498;50.422;14.912;2023-05-03T09:25:49;100022.81;;;13.04;41.44
66627;BME280;53498;50.422;14.912;2023-05-03T09:28:16;100022.09;;;13.33;40.72
66627;BME280;53498;50.422;14.912;2023-05-03T09:30:43;100021.03;;;13.06;40.71
66627;BME280;53498;50.422;14.912;2023-05-03T09:33:09;100017.50;;;12.96;40.82
66627;BME280;53498;50.422;14.912;2023-05-03T09:35:55;100013.16;;;12.94;41.14
66627;BME280;53498;50.422;14.912;2023-05-03T09:38:28;100016.75;;;13.14;41.24
66627;BME280;53498;50.422;14.912;2023-05-03T09:40:54;100014.09;;;13.04;41.52
66627;BME280;53498;50.422;14.912;2023-05-03T09:43:20;100010.44;;;12.77;41.37
66627;BME280;53498;50.422;14.912;2023-05-03T09:45:46;100002.69;;;12.94;41.94
66627;BME280;53498;50.422;14.912;2023-05-03T09:48:12;100013.34;;;13.25;41.67
66627;BME280;53498;50.422;14.912;2023-05-03T09:50:38;100005.56;;;13.40;41.28
66627;BME280;53498;50.422;14.912;2023-05-03T09:53:05;100004.66;;;13.29;41.03
66627;BME280;53498;50.422;14.912;2023-05-03T09:55:40;100004.69;;;13.32;40.15
66627;BME280;53498;50.422;14.912;2023-05-03T09:58:06;100005.53;;;13.29;41.36
66627;BME280;53498;50.422;14.912;2023-05-03T10:00:40;100004.47;;;12.96;40.67
66627;BME280;53498;50.422;14.912;2023-05-03T10:03:10;100001.25;;;13.51;42.15
66627;BME280;53498;50.422;14.912;2023-05-03T10:05:46;99996.00;;;13.48;40.68
66627;BME280;53498;50.422;14.912;2023-05-03T10:08:31;99994.34;;;13.90;40.57
66627;BME280;53498;50.422;14.912;2023-05-03T10:11:02;99997.81;;;13.71;40.40
66627;BME280;53498;50.422;14.912;2023-05-03T10:13:28;99996.09;;;13.79;39.76
66627;BME280;53498;50.422;14.912;2023-05-03T10:16:05;99994.34;;;13.73;42.19
66627;BME280;53498;50.422;14.912;2023-05-03T10:18:33;99983.03;;;13.93;40.75
66627;BME280;53498;50.422;14.912;2023-05-03T10:21:09;99981.28;;;14.13;39.32
66627;BME280;53498;50.422;14.912;2023-05-03T10:24:09;99988.25;;;13.99;40.41
66627;BME280;53498;50.422;14.912;2023-05-03T10:26:35;99983.91;;;14.21;37.83
66627;BME280;53498;50.422;14.912;2023-05-03T10:29:00;99979.50;;;13.68;38.88
66627;BME280;53498;50.422;14.912;2023-05-03T10:31:43;99982.13;;;13.74;39.05
66627;BME280;53498;50.422;14.912;2023-05-03T10:34:23;99974.28;;;13.80;39.58
66627;BME280;53498;50.422;14.912;2023-05-03T10:36:51;99975.16;;;13.70;39.74
66627;BME280;53498;50.422;14.912;2023-05-03T10:39:20;99973.38;;;13.69;40.47
66627;BME280;53498;50.422;14.912;2023-05-03T10:41:57;99968.13;;;13.56;38.77
66627;BME280;53498;50.422;14.912;2023-05-03T10:44:28;99978.59;;;13.56;39.00
66627;BME280;53498;50.422;14.912;2023-05-03T10:46:54;99976.91;;;13.71;38.79
66627;BME280;53498;50.422;14.912;2023-05-03T10:49:21;99971.69;;;14.32;39.72
66627;BME280;53498;50.422;14.912;2023-05-03T10:51:47;99962.81;;;15.03;38.89
66627;BME280;53498;50.422;14.912;2023-05-03T10:54:12;99957.59;;;15.05;36.64
66627;BME280;53498;50.422;14.912;2023-05-03T10:56:52;99965.50;;;14.87;38.05
66627;BME280;53498;50.422;14.912;2023-05-03T10:59:18;99962.09;;;14.22;37.95
66627;BME280;53498;50.422;14.912;2023-05-03T11:01:45;99967.31;;;14.28;38.75
66627;BME280;53498;50.422;14.912;2023-05-03T11:04:20;99960.34;;;14.38;38.31
66627;BME280;53498;50.422;14.912;2023-05-03T11:06:47;99962.09;;;14.17;37.89
66627;BME280;53498;50.422;14.912;2023-05-03T11:09:15;99968.22;;;14.15;37.99
66627;BME280;53498;50.422;14.912;2023-05-03T11:11:42;99962.97;;;13.87;38.08
66627;BME280;53498;50.422;14.912;2023-05-03T11:14:08;99963.84;;;13.94;37.69
66627;BME280;53498;50.422;14.912;2023-05-03T11:16:35;99965.59;;;13.95;37.24
66627;BME280;53498;50.422;14.912;2023-05-03T11:19:01;99952.50;;;14.27;36.52
66627;BME280;53498;50.422;14.912;2023-05-03T11:21:27;99958.63;;;14.17;36.38
66627;BME280;53498;50.422;14.912;2023-05-03T11:23:53;99951.66;;;14.17;38.41
66627;BME280;53498;50.422;14.912;2023-05-03T11:26:19;99950.75;;;13.84;37.51
66627;BME280;53498;50.422;14.912;2023-05-03T11:28:50;99949.91;;;14.05;37.61
66627;BME280;53498;50.422;14.912;2023-05-03T11:31:16;99955.97;;;14.43;37.73
66627;BME280;53498;50.422;14.912;2023-05-03T11:33:42;99953.38;;;14.26;37.70
66627;BME280;53498;50.422;14.912;2023-05-03T11:36:08;99949.84;;;14.44;35.71
66627;BME280;53498;50.422;14.912;2023-05-03T11:38:35;99956.88;;;14.35;35.48
66627;BME280;53498;50.422;14.912;2023-05-03T11:41:11;99949.88;;;13.84;36.55
66627;BME280;53498;50.422;14.912;2023-05-03T11:43:47;99949.00;;;14.37;37.14
66627;BME280;53498;50.422;14.912;2023-05-03T11:46:21;99949.88;;;14.41;36.52
66627;BME280;53498;50.422;14.912;2023-05-03T11:49:02;99936.78;;;14.61;36.95
66627;BME280;53498;50.422;14.912;2023-05-03T11:51:29;99935.91;;;14.62;36.54
66627;BME280;53498;50.422;14.912;2023-05-03T11:53:55;99936.78;;;14.59;35.63
66627;BME280;53498;50.422;14.912;2023-05-03T11:56:21;99935.03;;;14.55;35.80
66627;BME280;53498;50.422;14.912;2023-05-03T11:58:53;99935.00;;;14.63;36.12
66627;BME280;53498;50.422;14.912;2023-05-03T12:01:26;99932.44;;;14.55;36.08
66627;BME280;53498;50.422;14.912;2023-05-03T12:03:57;99940.19;;;14.87;35.81
66627;BME280;53498;50.422;14.912;2023-05-03T12:06:27;99931.34;;;15.10;35.99
66627;BME280;53498;50.422;14.912;2023-05-03T12:08:53;99937.41;;;15.22;35.21
66627;BME280;53498;50.422;14.912;2023-05-03T12:11:19;99937.47;;;15.09;36.45
66627;BME280;53498;50.422;14.912;2023-05-03T12:14:00;99935.84;;;14.78;36.82
66627;BME280;53498;50.422;14.912;2023-05-03T12:16:27;99929.72;;;14.81;36.75
66627;BME280;53498;50.422;14.912;2023-05-03T12:18:54;99928.72;;;15.16;36.57
66627;BME280;53498;50.422;14.912;2023-05-03T12:21:44;99934.66;;;15.52;37.40
66627;BME280;53498;50.422;14.912;2023-05-03T12:24:10;99929.53;;;15.30;36.01
66627;BME280;53498;50.422;14.912;2023-05-03T12:26:36;99929.63;;;15.09;36.95
66627;BME280;53498;50.422;14.912;2023-05-03T12:29:01;99926.31;;;14.57;37.00
66627;BME280;53498;50.422;14.912;2023-05-03T12:31:27;99929.66;;;14.96;37.64
66627;BME280;53498;50.422;14.912;2023-05-03T12:33:53;99920.91;;;15.03;37.39
66627;BME280;53498;50.422;14.912;2023-05-03T12:36:20;99922.69;;;14.98;36.46
66627;BME280;53498;50.422;14.912;2023-05-03T12:38:46;99925.28;;;15.01;37.55
66627;BME280;53498;50.422;14.912;2023-05-03T12:41:12;99907.94;;;14.65;37.33
66627;BME280;53498;50.422;14.912;2023-05-03T12:43:38;99906.97;;;14.98;37.52
66627;BME280;53498;50.422;14.912;2023-05-03T12:46:04;99920.78;;;15.30;38.02
66627;BME280;53498;50.422;14.912;2023-05-03T12:48:29;99912.97;;;15.23;36.14
66627;BME280;53498;50.422;14.912;2023-05-03T12:50:56;99908.53;;;15.30;36.50
66627;BME280;53498;50.422;14.912;2023-05-03T12:53:23;99909.38;;;15.40;35.86
66627;BME280;53498;50.422;14.912;2023-05-03T12:55:48;99912.91;;;15.36;36.74
66627;BME280;53498;50.422;14.912;2023-05-03T12:58:14;99904.38;;;14.92;37.13
66627;BME280;53498;50.422;14.912;2023-05-03T13:00:40;99895.53;;;15.10;38.00
66627;BME280;53498;50.422;14.912;2023-05-03T13:03:06;99896.28;;;15.32;36.28